createdAt,value
2019-04-16T00:00:42.822Z,9.80
2019-04-16T00:03:11.384Z,9.80
2019-04-16T00:05:45.645Z,9.80
2019-04-16T00:08:27.447Z,9.70
2019-04-16T00:10:50.279Z,9.70
2019-04-16T00:13:26.436Z,9.60
2019-04-16T00:15:55.198Z,9.60
2019-04-16T00:18:23.934Z,9.60
2019-04-16T00:20:54.192Z,9.60
2019-04-16T00:23:26.148Z,9.50
2019-04-16T00:25:55.496Z,9.50
2019-04-16T00:28:25.140Z,9.50
2019-04-16T00:30:53.928Z,9.50
2019-04-16T00:33:22.384Z,9.40
2019-04-16T00:35:50.913Z,9.40
2019-04-16T00:38:22.452Z,9.40
2019-04-16T00:40:50.522Z,9.30
2019-04-16T00:43:19.268Z,9.30
2019-04-16T00:45:49.104Z,9.30
2019-04-16T00:48:19.072Z,9.20
2019-04-16T00:50:47.549Z,9.20
2019-04-16T00:53:16.364Z,9.20
2019-04-16T00:55:45.043Z,9.10
2019-04-16T00:58:19.421Z,9.10
2019-04-16T01:00:44.798Z,9.10
2019-04-16T01:03:13.268Z,9.00
2019-04-16T01:05:42.301Z,9.00
2019-04-16T01:08:10.748Z,9.00
2019-04-16T01:10:47.519Z,9.00
2019-04-16T01:13:17.782Z,8.90
2019-04-16T01:15:46.231Z,8.90
2019-04-16T01:18:15.818Z,8.90
2019-04-16T01:20:56.570Z,8.80
2019-04-16T01:23:27.842Z,8.80
2019-04-16T01:26:01.897Z,8.80
2019-04-16T01:28:35.918Z,8.80
2019-04-16T01:31:10.095Z,8.80
2019-04-16T01:33:57.500Z,8.70
2019-04-16T01:36:30.390Z,8.70
2019-04-16T01:39:14.791Z,8.70
2019-04-16T01:41:31.841Z,8.70
2019-04-16T01:44:00.374Z,8.60
2019-04-16T01:46:32.586Z,8.60
2019-04-16T01:48:59.350Z,8.60
2019-04-16T01:51:29.757Z,8.60
2019-04-16T01:53:58.533Z,8.60
2019-04-16T01:56:29.629Z,8.50
2019-04-16T01:58:58.199Z,8.50
2019-04-16T02:01:27.065Z,8.50
2019-04-16T02:03:55.884Z,8.50
2019-04-16T02:06:26.064Z,8.50
2019-04-16T02:08:54.871Z,8.40
2019-04-16T02:11:23.648Z,8.40
2019-04-16T02:13:52.412Z,8.40
2019-04-16T02:16:22.439Z,8.40
2019-04-16T02:18:51.045Z,8.40
2019-04-16T02:21:19.484Z,8.40
2019-04-16T02:23:48.718Z,8.40
2019-04-16T02:26:17.273Z,8.40
2019-04-16T02:28:46.058Z,8.40
2019-04-16T02:31:16.283Z,8.30
2019-04-16T02:33:44.712Z,8.30
2019-04-16T02:36:13.472Z,8.30
2019-04-16T02:38:46.301Z,8.30
2019-04-16T02:41:12.111Z,8.30
2019-04-16T02:43:41.307Z,8.30
2019-04-16T02:46:09.952Z,8.20
2019-04-16T02:48:38.504Z,8.20
2019-04-16T02:51:20.915Z,8.20
2019-04-16T02:54:00.203Z,8.20
2019-04-16T02:56:51.753Z,8.20
2019-04-16T02:59:19.578Z,8.20
2019-04-16T03:02:02.063Z,8.20
2019-04-16T03:04:32.569Z,8.10
2019-04-16T03:07:03.226Z,8.10
2019-04-16T03:09:31.979Z,8.10
2019-04-16T03:12:00.879Z,8.10
2019-04-16T03:14:30.779Z,8.10
2019-04-16T03:17:17.566Z,8.00
2019-04-16T03:19:50.997Z,8.00
2019-04-16T03:22:18.319Z,8.00
2019-04-16T03:24:48.491Z,8.00
2019-04-16T03:27:21.951Z,7.90
2019-04-16T03:29:50.858Z,7.90
2019-04-16T03:32:19.639Z,7.90
2019-04-16T03:34:50.478Z,7.80
2019-04-16T03:37:18.614Z,7.80
2019-04-16T03:39:47.449Z,7.80
2019-04-16T03:42:15.890Z,7.80
2019-04-16T03:44:44.596Z,7.80
2019-04-16T03:47:15.643Z,7.80
2019-04-16T03:49:43.232Z,7.80
2019-04-16T03:52:12.084Z,7.70
2019-04-16T03:54:40.895Z,7.70
2019-04-16T03:57:09.347Z,7.70
2019-04-16T03:59:40.030Z,7.70
2019-04-16T04:02:08.402Z,7.70
2019-04-16T04:04:37.189Z,7.60
2019-04-16T04:07:05.647Z,7.60
2019-04-16T04:09:34.188Z,7.60
2019-04-16T04:12:03.029Z,7.60
2019-04-16T04:14:31.478Z,7.60
2019-04-16T04:17:05.428Z,7.50
2019-04-16T04:19:30.698Z,7.50
2019-04-16T04:21:59.608Z,7.50
2019-04-16T04:24:31.435Z,7.50
2019-04-16T04:27:01.711Z,7.40
2019-04-16T04:29:30.237Z,7.40
2019-04-16T04:32:03.158Z,7.40
2019-04-16T04:34:31.422Z,7.30
2019-04-16T04:37:00.076Z,7.40
2019-04-16T04:39:30.212Z,7.30
2019-04-16T04:41:59.260Z,7.30
2019-04-16T04:44:28.148Z,7.30
2019-04-16T04:46:57.289Z,7.30
2019-04-16T04:49:30.097Z,7.30
2019-04-16T04:51:56.204Z,7.20
2019-04-16T04:54:24.726Z,7.20
2019-04-16T04:56:53.184Z,7.20
2019-04-16T04:59:22.980Z,7.10
2019-04-16T05:01:51.452Z,7.10
2019-04-16T05:04:30.713Z,7.20
2019-04-16T05:07:00.881Z,7.20
2019-04-16T05:09:35.393Z,7.10
2019-04-16T05:12:02.264Z,7.10
2019-04-16T05:14:30.976Z,7.10
2019-04-16T05:16:59.484Z,7.10
2019-04-16T05:19:28.269Z,7.10
2019-04-16T05:21:56.996Z,7.10
2019-04-16T05:24:28.966Z,7.20
2019-04-16T05:26:56.520Z,7.20
2019-04-16T05:29:25.044Z,7.20
2019-04-16T05:31:54.450Z,7.20
2019-04-16T05:34:24.128Z,7.20
2019-04-16T05:36:52.896Z,7.30
2019-04-16T05:39:24.403Z,7.30
2019-04-16T05:41:52.969Z,7.40
2019-04-16T05:44:23.858Z,7.40
2019-04-16T05:46:52.580Z,7.50
2019-04-16T05:49:24.860Z,7.60
2019-04-16T05:51:51.548Z,7.70
2019-04-16T05:54:21.678Z,7.80
2019-04-16T05:56:56.005Z,7.90
2019-04-16T05:59:27.577Z,8.00
2019-04-16T06:02:01.033Z,8.20
2019-04-16T06:04:29.492Z,8.30
2019-04-16T06:07:04.801Z,8.40
2019-04-16T06:09:32.879Z,8.60
2019-04-16T06:12:05.869Z,8.70
2019-04-16T06:14:42.645Z,8.90
2019-04-16T06:17:13.016Z,9.10
2019-04-16T06:19:50.513Z,9.20
2019-04-16T06:22:20.647Z,9.40
2019-04-16T06:25:08.272Z,9.60
2019-04-16T06:27:53.077Z,9.70
2019-04-16T06:30:32.959Z,9.90
2019-04-16T06:33:02.753Z,9.90
2019-04-16T06:35:45.637Z,10.10
2019-04-16T06:38:24.811Z,10.40
2019-04-16T06:40:55.267Z,10.70
2019-04-16T06:43:28.758Z,10.80
2019-04-16T06:46:15.625Z,11.00
2019-04-16T06:48:51.708Z,11.20
2019-04-16T06:51:43.638Z,11.50
2019-04-16T06:54:31.730Z,11.60
2019-04-16T06:57:17.159Z,11.80
2019-04-16T06:59:56.445Z,12.00
2019-04-16T07:02:50.206Z,12.30
2019-04-16T07:05:33.601Z,12.40
2019-04-16T07:08:17.888Z,12.50
2019-04-16T07:10:49.214Z,12.70
2019-04-16T07:13:17.690Z,12.90
2019-04-16T07:15:46.409Z,13.10
2019-04-16T07:18:15.131Z,13.20
2019-04-16T07:20:45.649Z,13.20
2019-04-16T07:23:14.329Z,13.30
2019-04-16T07:25:44.151Z,13.50
2019-04-16T07:28:15.740Z,13.60
2019-04-16T07:31:02.862Z,13.60
2019-04-16T07:33:38.957Z,13.60
2019-04-16T07:36:28.033Z,13.70
2019-04-16T07:38:58.637Z,13.90
2019-04-16T07:41:28.731Z,13.90
2019-04-16T07:44:10.737Z,13.90
2019-04-16T07:46:41.035Z,13.90
2019-04-16T07:49:14.345Z,13.80
2019-04-16T07:51:53.185Z,14.00
2019-04-16T07:54:29.102Z,14.20
2019-04-16T07:56:57.573Z,14.50
2019-04-16T07:59:26.034Z,14.60
2019-04-16T08:01:55.980Z,14.50
2019-04-16T08:04:29.079Z,14.60
2019-04-16T08:06:55.137Z,14.80
2019-04-16T08:09:28.908Z,15.00
2019-04-16T08:11:53.894Z,15.10
2019-04-16T08:14:22.656Z,15.20
2019-04-16T08:16:51.430Z,15.30
2019-04-16T08:19:36.163Z,15.20
2019-04-16T08:21:54.984Z,15.30
2019-04-16T08:24:37.366Z,15.50
2019-04-16T08:27:09.577Z,15.60
2019-04-16T08:29:36.893Z,15.70
2019-04-16T08:32:05.872Z,15.90
2019-04-16T08:34:35.622Z,16.10
2019-04-16T08:37:04.098Z,16.20
2019-04-16T08:39:36.852Z,16.10
2019-04-16T08:42:04.254Z,16.30
2019-04-16T08:44:35.265Z,16.40
2019-04-16T08:47:04.639Z,16.40
2019-04-16T08:49:33.446Z,16.70
2019-04-16T08:52:02.157Z,17.00
2019-04-16T08:54:31.038Z,17.30
2019-04-16T08:56:59.818Z,17.50
2019-04-16T08:59:28.610Z,17.80
2019-04-16T09:01:57.397Z,17.80
2019-04-16T09:04:25.905Z,17.70
2019-04-16T09:06:54.373Z,17.80
2019-04-16T09:09:27.432Z,18.10
2019-04-16T09:11:57.561Z,18.20
2019-04-16T09:14:28.195Z,18.40
2019-04-16T09:17:05.463Z,18.50
2019-04-16T09:19:35.911Z,18.80
2019-04-16T09:22:04.452Z,19.30
2019-04-16T09:24:41.678Z,19.70
2019-04-16T09:27:33.882Z,19.90
2019-04-16T09:30:17.002Z,20.30
2019-04-16T09:32:43.467Z,20.10
2019-04-16T09:35:29.188Z,20.40
2019-04-16T09:37:59.582Z,20.40
2019-04-16T09:40:33.065Z,20.20
2019-04-16T09:43:16.232Z,20.10
2019-04-16T09:45:37.340Z,20.00
2019-04-16T09:48:04.672Z,20.00
2019-04-16T09:50:34.973Z,20.20
2019-04-16T09:53:03.424Z,20.40
2019-04-16T09:55:32.220Z,20.70
2019-04-16T09:58:05.984Z,20.70
2019-04-16T10:00:34.406Z,20.70
2019-04-16T10:03:04.561Z,20.70
2019-04-16T10:05:33.313Z,20.60
2019-04-16T10:08:02.019Z,20.70
2019-04-16T10:10:30.516Z,21.00
2019-04-16T10:13:00.791Z,21.00
2019-04-16T10:15:29.603Z,21.20
2019-04-16T10:17:58.592Z,21.10
2019-04-16T10:20:28.339Z,21.20
2019-04-16T10:22:57.564Z,21.00
2019-04-16T10:25:26.451Z,21.00
2019-04-16T10:28:01.881Z,21.10
2019-04-16T10:30:31.273Z,21.10
2019-04-16T10:33:00.069Z,21.30
2019-04-16T10:35:28.600Z,21.30
2019-04-16T10:37:58.783Z,21.30
2019-04-16T10:40:31.871Z,21.30
2019-04-16T10:43:18.919Z,21.30
2019-04-16T10:46:05.776Z,21.40
2019-04-16T10:48:51.246Z,21.40
2019-04-16T10:51:38.899Z,21.60
2019-04-16T10:54:12.233Z,21.60
2019-04-16T10:56:48.240Z,21.70
2019-04-16T10:59:35.633Z,22.00
2019-04-16T11:02:22.684Z,22.10
2019-04-16T11:04:52.894Z,21.90
2019-04-16T11:07:25.553Z,22.10
2019-04-16T11:09:54.300Z,22.30
2019-04-16T11:12:23.091Z,22.60
2019-04-16T11:14:51.557Z,22.70
2019-04-16T11:17:21.662Z,22.80
2019-04-16T11:19:54.132Z,23.10
2019-04-16T11:22:22.361Z,23.50
2019-04-16T11:24:50.924Z,23.70
2019-04-16T11:27:19.825Z,24.20
2019-04-16T11:29:48.605Z,23.90
2019-04-16T11:32:19.389Z,23.50
2019-04-16T11:34:48.326Z,23.50
2019-04-16T11:37:17.157Z,23.30
2019-04-16T11:39:46.128Z,23.20
2019-04-16T11:42:16.085Z,23.00
2019-04-16T11:44:45.553Z,23.00
2019-04-16T11:47:14.661Z,23.00
2019-04-16T11:49:43.417Z,22.90
2019-04-16T11:52:13.557Z,23.00
2019-04-16T11:54:46.754Z,23.00
2019-04-16T11:57:13.328Z,23.20
2019-04-16T11:59:42.676Z,23.30
2019-04-16T12:02:18.954Z,23.40
2019-04-16T12:05:01.475Z,23.80
2019-04-16T12:07:32.042Z,24.50
2019-04-16T12:10:18.415Z,25.30
2019-04-16T12:12:59.154Z,25.20
2019-04-16T12:15:32.440Z,24.80
2019-04-16T12:18:02.648Z,24.30
2019-04-16T12:20:49.547Z,23.80
2019-04-16T12:23:25.117Z,23.60
2019-04-16T12:26:10.431Z,23.50
2019-04-16T12:28:50.360Z,23.30
2019-04-16T12:31:37.469Z,23.10
2019-04-16T12:34:13.834Z,23.10
2019-04-16T12:36:44.056Z,23.50
2019-04-16T12:39:18.362Z,23.50
2019-04-16T12:41:47.425Z,23.30
2019-04-16T12:44:24.109Z,23.30
2019-04-16T12:46:58.273Z,23.10
2019-04-16T12:49:37.466Z,22.70
2019-04-16T12:52:24.118Z,23.00
2019-04-16T12:55:03.549Z,23.30
2019-04-16T12:57:48.014Z,23.30
2019-04-16T13:00:19.160Z,23.00
2019-04-16T13:02:55.406Z,23.10
2019-04-16T13:05:34.422Z,23.20
2019-04-16T13:08:16.976Z,23.30
2019-04-16T13:11:00.614Z,23.40
2019-04-16T13:13:52.261Z,23.40
2019-04-16T13:16:39.062Z,23.30
2019-04-16T13:19:26.682Z,23.30
2019-04-16T13:21:59.947Z,23.50
2019-04-16T13:24:49.674Z,23.70
2019-04-16T13:27:20.023Z,23.70
2019-04-16T13:29:48.558Z,23.90
2019-04-16T13:32:17.340Z,23.70
2019-04-16T13:35:04.122Z,23.20
2019-04-16T13:37:46.148Z,23.00
2019-04-16T13:40:14.845Z,23.20
2019-04-16T13:42:48.078Z,23.60
2019-04-16T13:45:25.890Z,23.50
2019-04-16T13:47:56.319Z,23.40
2019-04-16T13:50:26.787Z,23.30
2019-04-16T13:53:13.860Z,23.30
2019-04-16T13:55:49.458Z,23.30
2019-04-16T13:58:24.543Z,23.30
2019-04-16T14:00:54.733Z,23.10
2019-04-16T14:03:24.811Z,23.00
2019-04-16T14:05:53.900Z,23.10
2019-04-16T14:08:22.373Z,23.10
2019-04-16T14:10:51.336Z,23.20
2019-04-16T14:13:21.510Z,23.10
2019-04-16T14:15:50.048Z,23.00
2019-04-16T14:18:21.667Z,23.00
2019-04-16T14:20:49.420Z,22.80
2019-04-16T14:23:19.362Z,22.90
2019-04-16T14:25:48.209Z,22.70
2019-04-16T14:28:18.141Z,22.40
2019-04-16T14:30:48.581Z,22.20
2019-04-16T14:33:21.579Z,22.10
2019-04-16T14:35:50.445Z,22.00
2019-04-16T14:38:21.102Z,22.00
2019-04-16T14:40:50.963Z,22.00
2019-04-16T14:43:23.523Z,22.00
2019-04-16T14:45:58.034Z,21.90
2019-04-16T14:48:22.782Z,21.90
2019-04-16T14:50:51.249Z,21.80
2019-04-16T14:53:21.517Z,21.70
2019-04-16T14:56:00.718Z,21.60
2019-04-16T14:58:38.447Z,21.60
2019-04-16T15:01:15.237Z,21.70
2019-04-16T15:03:47.023Z,21.50
2019-04-16T15:06:19.608Z,21.40
2019-04-16T15:09:06.463Z,21.40
2019-04-16T15:11:40.521Z,21.40
2019-04-16T15:14:16.893Z,21.50
2019-04-16T15:16:55.883Z,21.70
2019-04-16T15:19:33.477Z,21.80
2019-04-16T15:22:20.321Z,21.90
2019-04-16T15:25:05.769Z,21.90
2019-04-16T15:27:49.561Z,21.80
2019-04-16T15:30:28.351Z,21.60
2019-04-16T15:32:57.922Z,21.60
2019-04-16T15:35:46.804Z,21.50
2019-04-16T15:38:34.497Z,21.30
2019-04-16T15:41:17.590Z,21.10
2019-04-16T15:43:51.532Z,20.90
2019-04-16T15:46:35.275Z,20.80
2019-04-16T15:49:11.399Z,20.50
2019-04-16T15:51:51.571Z,20.20
2019-04-16T15:54:34.343Z,20.10
2019-04-16T15:57:20.667Z,20.00
2019-04-16T16:00:07.437Z,19.90
2019-04-16T16:02:55.409Z,19.90
2019-04-16T16:05:30.783Z,19.80
2019-04-16T16:08:04.027Z,19.70
2019-04-16T16:10:37.281Z,19.60
2019-04-16T16:13:06.429Z,19.60
2019-04-16T16:15:40.251Z,19.60
2019-04-16T16:18:05.637Z,19.50
2019-04-16T16:20:35.137Z,19.40
2019-04-16T16:23:03.619Z,19.30
2019-04-16T16:25:32.073Z,19.30
2019-04-16T16:28:01.274Z,19.40
2019-04-16T16:30:31.718Z,19.30
2019-04-16T16:33:00.249Z,19.00
2019-04-16T16:35:29.067Z,18.90
2019-04-16T16:37:57.814Z,18.80
2019-04-16T16:40:26.281Z,18.60
2019-04-16T16:42:55.145Z,18.60
2019-04-16T16:45:25.645Z,18.60
2019-04-16T16:47:54.394Z,18.60
2019-04-16T16:50:23.216Z,18.50
2019-04-16T16:53:05.364Z,18.40
2019-04-16T16:55:38.615Z,18.30
2019-04-16T16:58:17.805Z,18.20
2019-04-16T17:00:47.022Z,18.20
2019-04-16T17:03:29.076Z,18.10
2019-04-16T17:05:59.558Z,18.00
2019-04-16T17:08:30.181Z,17.90
2019-04-16T17:10:59.700Z,17.90
2019-04-16T17:13:28.376Z,17.70
2019-04-16T17:15:57.472Z,17.60
2019-04-16T17:18:26.256Z,17.60
2019-04-16T17:20:56.588Z,17.50
2019-04-16T17:23:25.741Z,17.50
2019-04-16T17:25:57.867Z,17.50
2019-04-16T17:28:24.797Z,17.40
2019-04-16T17:30:53.486Z,17.40
2019-04-16T17:33:23.314Z,17.30
2019-04-16T17:35:51.834Z,17.30
2019-04-16T17:38:20.284Z,17.10
2019-04-16T17:41:00.254Z,17.00
2019-04-16T17:44:00.426Z,16.80
2019-04-16T17:46:24.467Z,16.80
2019-04-16T17:48:59.182Z,16.70
2019-04-16T17:51:46.753Z,16.70
2019-04-16T17:54:17.102Z,16.60
2019-04-16T17:56:47.194Z,16.60
2019-04-16T17:59:17.307Z,16.60
2019-04-16T18:02:02.547Z,16.50
2019-04-16T18:04:38.283Z,16.40
2019-04-16T18:07:24.842Z,16.40
2019-04-16T18:10:04.222Z,16.40
2019-04-16T18:12:54.233Z,16.30
2019-04-16T18:15:28.757Z,16.20
2019-04-16T18:18:07.823Z,16.20
2019-04-16T18:20:40.962Z,16.20
2019-04-16T18:23:23.606Z,16.20
2019-04-16T18:26:10.192Z,16.10
2019-04-16T18:28:40.292Z,16.10
2019-04-16T18:31:23.556Z,16.00
2019-04-16T18:33:56.864Z,15.90
2019-04-16T18:36:28.536Z,15.80
2019-04-16T18:39:16.544Z,15.70
2019-04-16T18:41:57.060Z,15.60
2019-04-16T18:44:42.052Z,15.60
2019-04-16T18:47:14.920Z,15.60
2019-04-16T18:49:44.857Z,15.50
2019-04-16T18:52:15.517Z,15.50
2019-04-16T18:54:45.988Z,15.50
2019-04-16T18:57:14.475Z,15.40
2019-04-16T18:59:43.189Z,15.30
2019-04-16T19:02:12.082Z,15.30
2019-04-16T19:04:40.925Z,15.20
2019-04-16T19:07:09.581Z,15.20
2019-04-16T19:09:38.157Z,15.10
2019-04-16T19:12:08.259Z,15.20
2019-04-16T19:14:36.945Z,15.20
2019-04-16T19:17:05.856Z,15.20
2019-04-16T19:19:34.392Z,15.20
2019-04-16T19:22:03.072Z,15.10
2019-04-16T19:24:33.641Z,15.10
2019-04-16T19:27:02.414Z,15.10
2019-04-16T19:29:30.874Z,15.10
2019-04-16T19:31:59.679Z,15.00
2019-04-16T19:34:28.133Z,15.00
2019-04-16T19:36:59.581Z,15.00
2019-04-16T19:39:27.053Z,14.90
2019-04-16T19:41:57.215Z,14.90
2019-04-16T19:44:25.879Z,14.90
2019-04-16T19:46:54.753Z,14.90
2019-04-16T19:49:25.251Z,14.80
2019-04-16T19:51:54.099Z,14.80
2019-04-16T19:54:25.645Z,14.70
2019-04-16T19:56:54.499Z,14.70
2019-04-16T19:59:23.231Z,14.70
2019-04-16T20:01:55.840Z,14.70
2019-04-16T20:04:24.981Z,14.60
2019-04-16T20:06:59.706Z,14.60
2019-04-16T20:09:25.657Z,14.60
2019-04-16T20:11:55.450Z,14.60
2019-04-16T20:14:25.804Z,14.50
2019-04-16T20:16:54.456Z,14.50
2019-04-16T20:19:26.303Z,14.50
2019-04-16T20:21:54.933Z,14.40
2019-04-16T20:24:24.238Z,14.40
2019-04-16T20:26:56.129Z,14.40
2019-04-16T20:29:24.973Z,14.40
2019-04-16T20:31:55.475Z,14.30
2019-04-16T20:34:24.347Z,14.30
2019-04-16T20:36:55.792Z,14.30
2019-04-16T20:39:23.474Z,14.30
2019-04-16T20:41:56.896Z,14.30
2019-04-16T20:44:24.140Z,14.20
2019-04-16T20:46:53.013Z,14.20
2019-04-16T20:49:21.790Z,14.20
2019-04-16T20:51:50.590Z,14.10
2019-04-16T20:54:21.025Z,14.10
2019-04-16T20:56:49.966Z,14.10
2019-04-16T20:59:21.209Z,14.10
2019-04-16T21:01:49.762Z,14.10
2019-04-16T21:04:20.786Z,14.10
2019-04-16T21:06:55.552Z,14.10
2019-04-16T21:09:26.779Z,14.10
2019-04-16T21:11:57.160Z,14.10
2019-04-16T21:14:28.433Z,14.10
2019-04-16T21:16:58.390Z,14.10
2019-04-16T21:19:28.791Z,14.00
2019-04-16T21:22:01.370Z,14.00
2019-04-16T21:24:39.203Z,14.00
2019-04-16T21:27:09.868Z,14.00
2019-04-16T21:29:36.893Z,14.00
2019-04-16T21:32:10.232Z,13.90
2019-04-16T21:34:39.278Z,13.90
2019-04-16T21:37:25.727Z,13.90
2019-04-16T21:40:02.531Z,13.90
2019-04-16T21:42:34.332Z,13.90
2019-04-16T21:45:01.306Z,13.80
2019-04-16T21:47:30.012Z,13.70
2019-04-16T21:49:58.846Z,13.70
2019-04-16T21:52:28.675Z,13.70
2019-04-16T21:55:03.015Z,13.60
2019-04-16T21:57:28.154Z,13.60
2019-04-16T21:59:58.916Z,13.60
2019-04-16T22:02:29.434Z,13.50
2019-04-16T22:04:58.221Z,13.50
2019-04-16T22:07:27.166Z,13.40
2019-04-16T22:09:56.242Z,13.40
2019-04-16T22:12:26.602Z,13.40
2019-04-16T22:14:55.957Z,13.40
2019-04-16T22:17:24.922Z,13.30
2019-04-16T22:20:00.240Z,13.30
2019-04-16T22:22:27.315Z,13.30
2019-04-16T22:24:56.067Z,13.30
2019-04-16T22:27:24.878Z,13.20
2019-04-16T22:29:53.689Z,13.20
2019-04-16T22:32:22.178Z,13.20
2019-04-16T22:34:50.926Z,13.20
2019-04-16T22:37:19.380Z,13.20
2019-04-16T22:40:05.994Z,13.10
2019-04-16T22:42:57.272Z,13.10
2019-04-16T22:45:43.904Z,13.10
2019-04-16T22:48:12.354Z,13.00
2019-04-16T22:50:41.814Z,13.00
2019-04-16T22:53:10.622Z,12.90
2019-04-16T22:55:42.473Z,12.90
2019-04-16T22:58:11.356Z,12.90
2019-04-16T23:00:45.073Z,12.80
2019-04-16T23:03:13.671Z,12.80
2019-04-16T23:05:44.266Z,12.80
2019-04-16T23:08:13.095Z,12.70
2019-04-16T23:10:42.032Z,12.70
2019-04-16T23:13:10.763Z,12.70
2019-04-16T23:15:41.660Z,12.70
2019-04-16T23:18:10.470Z,12.70
2019-04-16T23:20:41.045Z,12.70
2019-04-16T23:23:09.517Z,12.70
2019-04-16T23:25:38.267Z,12.70
2019-04-16T23:28:10.969Z,12.70
2019-04-16T23:30:37.681Z,12.70
2019-04-16T23:33:06.440Z,12.80
2019-04-16T23:35:34.929Z,12.80
2019-04-16T23:38:06.912Z,12.80
2019-04-16T23:40:35.797Z,12.80
2019-04-16T23:43:13.272Z,12.70
2019-04-16T23:45:43.549Z,12.60
2019-04-16T23:48:28.310Z,12.60
2019-04-16T23:51:03.851Z,12.50
2019-04-16T23:53:34.726Z,12.40
2019-04-16T23:56:10.070Z,12.30
2019-04-16T23:58:40.489Z,12.20
